createdAt,value
2018-11-25T00:02:23.289Z,8.09
2018-11-25T00:04:58.301Z,8.08
2018-11-25T00:07:36.872Z,7.99
2018-11-25T00:10:12.284Z,7.98
2018-11-25T00:12:46.241Z,7.95
2018-11-25T00:15:19.143Z,7.95
2018-11-25T00:17:58.503Z,7.95
2018-11-25T00:20:33.469Z,7.93
2018-11-25T00:23:06.297Z,7.90
2018-11-25T00:25:39.077Z,7.78
2018-11-25T00:28:14.946Z,7.83
2018-11-25T00:30:50.097Z,7.84
2018-11-25T00:33:24.953Z,7.83
2018-11-25T00:36:08.956Z,7.91
2018-11-25T00:38:43.899Z,7.85
2018-11-25T00:41:19.787Z,7.84
2018-11-25T00:43:54.557Z,7.85
2018-11-25T00:46:29.294Z,7.86
2018-11-25T00:49:06.080Z,7.79
2018-11-25T00:51:41.291Z,7.75
2018-11-25T00:54:15.138Z,7.63
2018-11-25T00:56:50.460Z,7.52
2018-11-25T00:59:25.292Z,7.41
2018-11-25T01:05:13.291Z,7.35
2018-11-25T01:07:46.282Z,7.35
2018-11-25T01:10:21.866Z,7.36
2018-11-25T01:12:56.489Z,7.42
2018-11-25T01:15:31.282Z,7.44
2018-11-25T01:18:04.278Z,7.44
2018-11-25T01:20:38.788Z,7.46
2018-11-25T01:23:13.432Z,7.46
2018-11-25T01:25:48.281Z,7.49
2018-11-25T01:28:21.288Z,7.49
2018-11-25T01:30:54.115Z,7.50
2018-11-25T01:33:27.117Z,7.54
2018-11-25T01:36:00.101Z,7.54
2018-11-25T01:38:35.134Z,7.54
2018-11-25T01:41:10.287Z,7.51
2018-11-25T01:43:44.073Z,7.51
2018-11-25T01:46:19.273Z,7.51
2018-11-25T01:48:54.283Z,7.47
2018-11-25T01:51:29.071Z,7.45
2018-11-25T01:54:03.981Z,7.43
2018-11-25T01:56:39.113Z,7.36
2018-11-25T01:59:12.269Z,7.39
2018-11-25T02:01:45.279Z,7.37
2018-11-25T02:04:20.099Z,7.30
2018-11-25T02:06:55.294Z,7.32
2018-11-25T02:09:28.280Z,7.36
2018-11-25T02:12:01.749Z,7.34
2018-11-25T02:14:36.741Z,7.32
2018-11-25T02:17:12.556Z,7.28
2018-11-25T02:19:47.575Z,7.25
2018-11-25T02:22:22.537Z,7.25
2018-11-25T02:25:00.413Z,7.25
2018-11-25T02:27:36.296Z,7.32
2018-11-25T02:30:13.505Z,7.31
2018-11-25T02:32:48.451Z,7.35
2018-11-25T02:35:23.279Z,7.35
2018-11-25T02:38:01.539Z,7.44
2018-11-25T02:40:39.433Z,7.43
2018-11-25T02:43:14.072Z,7.43
2018-11-25T02:45:48.957Z,7.57
2018-11-25T02:48:23.439Z,7.61
2018-11-25T02:50:58.971Z,7.76
2018-11-25T02:53:41.465Z,7.76
2018-11-25T02:56:16.446Z,7.67
2018-11-25T02:58:51.287Z,7.69
2018-11-25T03:01:24.065Z,7.69
2018-11-25T03:03:59.789Z,7.74
2018-11-25T03:06:34.432Z,7.72
2018-11-25T03:09:11.102Z,7.69
2018-11-25T03:11:44.004Z,7.69
2018-11-25T03:14:18.884Z,7.66
2018-11-25T03:16:54.329Z,7.59
2018-11-25T03:19:27.118Z,7.65
2018-11-25T03:22:00.567Z,7.65
2018-11-25T03:24:35.353Z,7.69
2018-11-25T03:27:10.343Z,7.77
2018-11-25T03:29:44.954Z,7.80
2018-11-25T03:32:19.773Z,7.70
2018-11-25T03:34:54.408Z,7.78
2018-11-25T03:37:41.814Z,7.79
2018-11-25T03:40:18.280Z,7.85
2018-11-25T03:42:51.136Z,7.86
2018-11-25T03:45:26.606Z,7.90
2018-11-25T03:48:04.940Z,7.96
2018-11-25T03:50:41.767Z,7.90
2018-11-25T03:53:19.415Z,7.87
2018-11-25T03:55:56.290Z,7.89
2018-11-25T03:58:30.083Z,7.89
2018-11-25T04:01:04.785Z,7.93
2018-11-25T04:03:39.432Z,7.94
2018-11-25T04:06:22.083Z,7.90
2018-11-25T04:08:56.948Z,7.90
2018-11-25T04:11:40.813Z,7.84
2018-11-25T04:14:15.457Z,7.79
2018-11-25T04:16:50.483Z,7.76
2018-11-25T04:19:25.298Z,7.79
2018-11-25T04:22:00.311Z,7.79
2018-11-25T04:24:33.123Z,7.87
2018-11-25T04:27:07.301Z,7.84
2018-11-25T04:29:41.899Z,7.71
2018-11-25T04:32:16.732Z,7.68
2018-11-25T04:34:51.406Z,7.72
2018-11-25T04:37:26.350Z,7.65
2018-11-25T04:40:00.081Z,7.71
2018-11-25T04:42:35.333Z,7.76
2018-11-25T04:45:09.282Z,7.76
2018-11-25T04:47:50.908Z,7.79
2018-11-25T04:50:26.296Z,7.83
2018-11-25T04:52:58.878Z,7.86
2018-11-25T04:55:36.992Z,7.81
2018-11-25T04:58:17.966Z,7.75
2018-11-25T05:00:52.948Z,7.79
2018-11-25T05:03:28.432Z,7.76
2018-11-25T05:06:02.973Z,7.80
2018-11-25T05:08:37.960Z,7.87
2018-11-25T05:11:12.423Z,7.87
2018-11-25T05:13:46.955Z,7.89
2018-11-25T05:16:21.991Z,7.92
2018-11-25T05:18:56.957Z,7.92
2018-11-25T05:21:32.951Z,7.95
2018-11-25T05:24:07.953Z,7.91
2018-11-25T05:26:43.921Z,7.93
2018-11-25T05:29:18.459Z,7.93
2018-11-25T05:31:53.407Z,7.80
2018-11-25T05:34:28.298Z,7.80
2018-11-25T05:37:01.039Z,7.89
2018-11-25T05:39:38.292Z,7.84
2018-11-25T05:42:11.286Z,7.85
2018-11-25T05:44:44.111Z,7.86
2018-11-25T05:47:19.355Z,7.85
2018-11-25T05:49:54.299Z,7.89
2018-11-25T05:52:27.285Z,7.89
2018-11-25T05:54:59.881Z,7.80
2018-11-25T05:57:34.652Z,7.78
2018-11-25T06:00:24.954Z,7.80
2018-11-25T06:02:59.945Z,7.77
2018-11-25T06:05:35.102Z,7.78
2018-11-25T06:08:10.290Z,7.78
2018-11-25T06:10:44.282Z,7.86
2018-11-25T06:13:17.133Z,7.85
2018-11-25T06:15:51.056Z,7.85
2018-11-25T06:18:26.322Z,7.85
2018-11-25T06:21:01.288Z,7.90
2018-11-25T06:23:34.292Z,7.88
2018-11-25T06:26:07.294Z,7.92
2018-11-25T06:28:40.298Z,7.93
2018-11-25T06:31:15.292Z,7.96
2018-11-25T06:33:48.295Z,7.90
2018-11-25T06:36:21.276Z,7.94
2018-11-25T06:38:55.947Z,7.95
2018-11-25T06:41:34.127Z,8.00
2018-11-25T06:44:06.550Z,8.04
2018-11-25T06:50:38.429Z,8.16
2018-11-25T06:53:13.428Z,8.16
2018-11-25T06:55:48.711Z,8.08
2018-11-25T06:58:23.325Z,8.15
2018-11-25T07:00:56.299Z,8.15
2018-11-25T07:03:31.387Z,8.23
2018-11-25T07:06:04.140Z,8.23
2018-11-25T07:08:38.927Z,8.27
2018-11-25T07:11:14.301Z,8.26
2018-11-25T07:13:49.296Z,8.28
2018-11-25T07:16:22.317Z,8.29
2018-11-25T07:18:57.305Z,8.30
2018-11-25T07:21:30.312Z,8.31
2018-11-25T07:24:05.422Z,8.30
2018-11-25T07:26:40.406Z,8.40
2018-11-25T07:29:15.416Z,8.40
2018-11-25T07:31:48.298Z,8.42
2018-11-25T07:34:23.425Z,8.47
2018-11-25T07:38:11.945Z,8.58
2018-11-25T07:40:47.074Z,8.60
2018-11-25T07:43:23.303Z,8.66
2018-11-25T07:45:56.171Z,8.71
2018-11-25T07:48:31.974Z,8.71
2018-11-25T07:51:07.331Z,8.80
2018-11-25T07:53:41.962Z,8.90
2018-11-25T07:56:16.798Z,8.95
2018-11-25T07:58:52.295Z,8.93
2018-11-25T08:01:25.297Z,8.99
2018-11-25T08:04:00.292Z,9.08
2018-11-25T08:06:33.285Z,9.11
2018-11-25T08:10:43.288Z,9.28
2018-11-25T08:13:18.109Z,9.26
2018-11-25T08:15:53.415Z,9.31
2018-11-25T08:18:26.297Z,9.40
2018-11-25T08:21:01.254Z,9.44
2018-11-25T08:23:36.288Z,9.54
2018-11-25T08:26:09.298Z,9.64
2018-11-25T08:28:44.288Z,9.73
2018-11-25T08:31:18.816Z,9.80
2018-11-25T08:33:53.312Z,9.71
2018-11-25T08:36:28.292Z,9.71
2018-11-25T08:39:02.811Z,9.81
2018-11-25T08:41:37.481Z,9.88
2018-11-25T08:44:10.290Z,9.80
2018-11-25T08:46:43.030Z,9.78
2018-11-25T08:49:17.826Z,9.90
2018-11-25T08:51:52.557Z,9.90
2018-11-25T08:54:27.302Z,10.25
2018-11-25T08:57:02.362Z,10.25
2018-11-25T08:59:35.215Z,10.41
2018-11-25T09:02:08.551Z,10.67
2018-11-25T09:04:43.350Z,10.99
2018-11-25T09:07:17.360Z,11.25
2018-11-25T09:09:50.329Z,11.60
2018-11-25T09:12:25.429Z,11.76
2018-11-25T09:15:00.287Z,11.96
2018-11-25T09:17:34.739Z,12.13
2018-11-25T09:20:20.768Z,11.93
2018-11-25T09:22:56.326Z,11.42
2018-11-25T09:25:33.128Z,11.42
2018-11-25T09:28:11.466Z,11.18
2018-11-25T09:30:46.335Z,11.18
2018-11-25T09:33:23.776Z,11.27
2018-11-25T09:35:58.965Z,11.03
2018-11-25T09:38:33.815Z,10.92
2018-11-25T09:41:08.813Z,10.76
2018-11-25T09:43:43.745Z,10.90
2018-11-25T09:46:19.301Z,10.95
2018-11-25T09:48:53.955Z,10.93
2018-11-25T09:51:29.122Z,10.92
2018-11-25T09:54:04.140Z,10.96
2018-11-25T09:56:38.961Z,11.03
2018-11-25T09:59:14.121Z,11.18
2018-11-25T10:01:47.042Z,11.25
2018-11-25T10:04:21.957Z,11.40
2018-11-25T10:06:57.287Z,11.80
2018-11-25T10:09:31.967Z,11.80
2018-11-25T10:12:07.169Z,11.85
2018-11-25T10:14:41.814Z,12.00
2018-11-25T10:17:17.500Z,12.13
2018-11-25T10:19:50.300Z,12.19
2018-11-25T10:22:25.505Z,12.34
2018-11-25T10:24:58.469Z,12.34
2018-11-25T10:27:33.992Z,12.34
2018-11-25T10:30:13.296Z,12.50
2018-11-25T10:32:46.373Z,12.65
2018-11-25T10:35:21.291Z,12.79
2018-11-25T10:37:56.444Z,12.78
2018-11-25T10:40:31.302Z,12.72
2018-11-25T10:43:05.330Z,12.60
2018-11-25T10:45:39.955Z,12.41
2018-11-25T10:48:16.290Z,12.29
2018-11-25T10:50:51.395Z,12.20
2018-11-25T10:53:24.111Z,12.07
2018-11-25T10:55:56.870Z,12.04
2018-11-25T10:58:31.740Z,11.97
2018-11-25T11:01:23.570Z,11.84
2018-11-25T11:03:59.883Z,11.85
2018-11-25T11:06:51.280Z,11.89
2018-11-25T11:09:25.994Z,11.82
2018-11-25T11:12:00.963Z,11.80
2018-11-25T11:14:35.504Z,11.78
2018-11-25T11:17:10.298Z,11.66
2018-11-25T11:19:45.299Z,11.68
2018-11-25T11:22:20.478Z,11.56
2018-11-25T11:24:53.292Z,11.56
2018-11-25T11:27:26.298Z,11.50
2018-11-25T11:30:01.296Z,11.45
2018-11-25T11:32:36.438Z,11.51
2018-11-25T11:35:12.327Z,11.47
2018-11-25T11:37:47.531Z,11.43
2018-11-25T11:40:22.305Z,11.47
2018-11-25T11:42:55.620Z,11.34
2018-11-25T11:45:30.718Z,11.34
2018-11-25T11:48:05.496Z,11.30
2018-11-25T11:50:40.747Z,11.31
2018-11-25T11:53:15.901Z,11.31
2018-11-25T11:55:50.562Z,11.35
2018-11-25T11:58:23.334Z,11.39
2018-11-25T12:00:56.112Z,11.47
2018-11-25T12:03:30.800Z,11.57
2018-11-25T12:06:05.483Z,11.66
2018-11-25T12:08:40.379Z,11.89
2018-11-25T12:11:15.289Z,11.93
2018-11-25T12:13:49.998Z,11.93
2018-11-25T12:16:24.966Z,12.01
2018-11-25T12:18:59.601Z,12.24
2018-11-25T12:21:34.432Z,12.51
2018-11-25T12:24:07.284Z,12.69
2018-11-25T12:26:40.275Z,12.73
2018-11-25T12:29:15.144Z,12.85
2018-11-25T12:31:48.293Z,12.87
2018-11-25T12:34:23.056Z,12.90
2018-11-25T12:36:55.888Z,12.81
2018-11-25T12:39:28.880Z,12.57
2018-11-25T12:42:04.289Z,12.44
2018-11-25T12:44:39.288Z,12.42
2018-11-25T12:47:12.283Z,12.58
2018-11-25T12:49:47.153Z,12.76
2018-11-25T12:52:20.381Z,12.76
2018-11-25T12:54:53.296Z,12.78
2018-11-25T12:57:29.472Z,12.86
2018-11-25T13:00:04.343Z,13.04
2018-11-25T13:02:39.439Z,13.08
2018-11-25T13:05:12.290Z,12.98
2018-11-25T13:07:47.415Z,12.75
2018-11-25T13:10:20.290Z,12.69
2018-11-25T13:12:56.384Z,12.61
2018-11-25T13:15:29.276Z,12.64
2018-11-25T13:18:02.425Z,12.67
2018-11-25T13:20:37.294Z,12.42
2018-11-25T13:23:10.518Z,12.42
2018-11-25T13:25:45.289Z,12.46
2018-11-25T13:28:20.534Z,12.46
2018-11-25T13:30:55.297Z,12.44
2018-11-25T13:33:30.447Z,12.37
2018-11-25T13:36:05.324Z,12.35
2018-11-25T13:38:40.287Z,12.12
2018-11-25T13:41:13.275Z,12.05
2018-11-25T13:43:48.984Z,12.08
2018-11-25T13:46:23.911Z,12.24
2018-11-25T13:49:00.296Z,12.43
2018-11-25T13:51:35.278Z,12.60
2018-11-25T13:54:09.954Z,13.03
2018-11-25T13:56:44.952Z,13.23
2018-11-25T13:59:18.112Z,13.51
2018-11-25T14:01:52.957Z,14.05
2018-11-25T14:04:27.529Z,14.25
2018-11-25T14:07:00.289Z,13.82
2018-11-25T14:09:35.951Z,13.49
2018-11-25T14:12:10.949Z,13.18
2018-11-25T14:14:45.557Z,12.98
2018-11-25T14:17:20.288Z,12.71
2018-11-25T14:19:55.283Z,12.76
2018-11-25T14:22:30.361Z,12.79
2018-11-25T14:25:05.130Z,12.82
2018-11-25T14:27:38.535Z,12.67
2018-11-25T14:30:24.958Z,12.41
2018-11-25T14:33:00.567Z,12.06
2018-11-25T14:35:35.288Z,12.06
2018-11-25T14:38:10.970Z,11.86
2018-11-25T14:40:45.958Z,11.63
2018-11-25T14:43:20.796Z,11.53
2018-11-25T14:45:55.296Z,11.44
2018-11-25T14:48:30.466Z,11.24
2018-11-25T14:51:05.285Z,11.19
2018-11-25T14:53:39.945Z,11.01
2018-11-25T14:56:14.735Z,10.82
2018-11-25T14:58:47.309Z,10.68
2018-11-25T15:01:22.134Z,10.52
2018-11-25T15:04:02.320Z,10.49
2018-11-25T15:06:37.290Z,10.41
2018-11-25T15:09:14.950Z,10.29
2018-11-25T15:11:49.518Z,10.26
2018-11-25T15:14:24.290Z,10.20
2018-11-25T15:16:59.287Z,10.12
2018-11-25T15:19:34.288Z,10.07
2018-11-25T15:22:08.906Z,9.99
2018-11-25T15:24:41.673Z,9.93
2018-11-25T15:27:16.578Z,9.90
2018-11-25T15:29:49.320Z,9.83
2018-11-25T15:32:24.182Z,9.80
2018-11-25T15:34:59.125Z,9.77
2018-11-25T15:37:34.450Z,9.76
2018-11-25T15:40:17.279Z,9.72
2018-11-25T15:42:52.401Z,9.71
2018-11-25T15:45:27.445Z,9.65
2018-11-25T15:48:08.302Z,9.53
2018-11-25T15:50:43.284Z,9.49
2018-11-25T15:53:18.422Z,9.54
2018-11-25T15:56:01.409Z,9.54
2018-11-25T15:58:36.499Z,9.47
2018-11-25T16:01:11.345Z,9.41
2018-11-25T16:03:49.016Z,9.30
2018-11-25T16:06:38.531Z,9.24
2018-11-25T16:09:14.120Z,9.16
2018-11-25T16:11:48.920Z,9.16
2018-11-25T16:14:23.571Z,9.09
2018-11-25T16:16:58.329Z,8.91
2018-11-25T16:19:32.943Z,8.91
2018-11-25T16:22:07.440Z,8.86
2018-11-25T16:24:42.096Z,8.86
2018-11-25T16:27:16.949Z,8.80
2018-11-25T16:29:51.573Z,8.77
2018-11-25T16:32:26.339Z,8.73
2018-11-25T16:35:01.282Z,8.73
2018-11-25T16:37:36.506Z,8.63
2018-11-25T16:40:18.089Z,8.54
2018-11-25T16:42:53.471Z,8.52
2018-11-25T16:45:28.306Z,8.47
2018-11-25T16:48:01.436Z,8.37
2018-11-25T16:50:36.282Z,8.29
2018-11-25T16:53:11.973Z,8.09
2018-11-25T16:55:46.745Z,7.95
2018-11-25T16:58:21.852Z,7.72
2018-11-25T17:00:56.298Z,7.72
2018-11-25T17:03:31.409Z,7.75
2018-11-25T17:06:06.304Z,7.69
2018-11-25T17:08:48.372Z,7.64
2018-11-25T17:11:21.307Z,7.59
2018-11-25T17:13:56.298Z,7.45
2018-11-25T17:16:29.290Z,7.40
2018-11-25T17:19:04.300Z,7.31
2018-11-25T17:21:37.135Z,7.35
2018-11-25T17:24:15.303Z,7.33
2018-11-25T17:26:50.004Z,7.31
2018-11-25T17:29:25.142Z,7.16
2018-11-25T17:31:58.114Z,7.06
2018-11-25T17:34:33.306Z,7.01
2018-11-25T17:37:08.377Z,6.95
2018-11-25T17:39:41.285Z,6.86
2018-11-25T17:42:14.137Z,6.78
2018-11-25T17:44:49.305Z,6.75
2018-11-25T17:47:22.275Z,6.72
2018-11-25T17:49:57.304Z,6.68
2018-11-25T17:52:30.293Z,6.68
2018-11-25T17:55:05.302Z,6.68
2018-11-25T17:57:39.354Z,6.68
2018-11-25T18:01:00.480Z,6.66
2018-11-25T18:03:35.995Z,6.57
2018-11-25T18:06:11.356Z,6.56
2018-11-25T18:08:50.729Z,6.56
2018-11-25T18:11:25.304Z,6.51
2018-11-25T18:14:01.350Z,6.55
2018-11-25T18:16:34.278Z,6.53
2018-11-25T18:21:32.304Z,6.57
2018-11-25T18:24:05.401Z,6.48
2018-11-25T18:26:38.880Z,6.47
2018-11-25T18:29:14.284Z,6.45
2018-11-25T18:31:47.293Z,6.38
2018-11-25T18:34:20.332Z,6.32
2018-11-25T18:36:56.004Z,6.20
2018-11-25T18:39:31.953Z,6.13
2018-11-25T18:42:07.130Z,6.17
2018-11-25T18:47:00.972Z,6.23
2018-11-25T18:49:34.673Z,6.17
2018-11-25T18:52:10.386Z,6.15
2018-11-25T18:54:50.482Z,6.10
2018-11-25T18:57:25.625Z,6.01
2018-11-25T19:00:01.313Z,6.01
2018-11-25T19:02:43.382Z,6.02
2018-11-25T19:05:18.507Z,5.90
2018-11-25T19:07:55.413Z,5.90
2018-11-25T19:10:30.473Z,5.78
2018-11-25T19:13:06.396Z,5.78
2018-11-25T19:15:41.397Z,5.76
2018-11-25T19:18:16.926Z,5.71
2018-11-25T19:20:52.348Z,5.65
2018-11-25T19:23:26.359Z,5.65
2018-11-25T19:26:01.963Z,5.63
2018-11-25T19:28:37.598Z,5.54
2018-11-25T19:31:12.974Z,5.54
2018-11-25T19:33:54.119Z,5.51
2018-11-25T19:36:29.286Z,5.47
2018-11-25T19:39:05.330Z,5.45
2018-11-25T19:41:38.440Z,5.47
2018-11-25T19:44:17.327Z,5.46
2018-11-25T19:46:52.992Z,5.46
2018-11-25T19:49:27.579Z,5.42
2018-11-25T19:52:02.306Z,5.32
2018-11-25T19:54:37.283Z,5.38
2018-11-25T19:57:10.078Z,5.35
2018-11-25T20:02:52.438Z,5.29
2018-11-25T20:05:27.797Z,5.05
2018-11-25T20:08:03.055Z,5.09
2018-11-25T20:10:38.002Z,5.09
2018-11-25T20:13:15.145Z,4.98
2018-11-25T20:15:50.991Z,4.98
2018-11-25T20:18:27.053Z,4.90
2018-11-25T20:22:37.863Z,4.77
2018-11-25T20:25:12.400Z,4.77
2018-11-25T20:27:54.632Z,4.90
2018-11-25T20:30:34.537Z,5.01
2018-11-25T20:33:26.986Z,5.01
2018-11-25T20:36:02.990Z,5.09
2018-11-25T20:38:56.770Z,5.15
2018-11-25T20:41:31.829Z,5.17
2018-11-25T20:44:07.600Z,5.26
2018-11-25T20:46:59.555Z,5.32
2018-11-25T20:49:35.005Z,5.32
2018-11-25T20:52:27.386Z,5.36
2018-11-25T20:55:02.998Z,5.43
2018-11-25T20:57:38.984Z,5.48
2018-11-25T21:00:22.027Z,5.52
2018-11-25T21:02:58.388Z,5.56
2018-11-25T21:05:31.261Z,5.61
2018-11-25T21:08:04.543Z,5.58
2018-11-25T21:10:37.316Z,5.60
2018-11-25T21:13:13.313Z,5.61
2018-11-25T21:15:48.301Z,5.61
2018-11-25T21:18:22.409Z,5.72
2018-11-25T21:20:55.534Z,5.77
2018-11-25T21:23:28.807Z,5.82
2018-11-25T21:26:01.708Z,5.70
2018-11-25T21:28:37.320Z,5.62
2018-11-25T21:31:10.284Z,5.62
2018-11-25T21:33:43.291Z,5.78
2018-11-25T21:36:18.281Z,5.78
2018-11-25T21:38:52.748Z,5.81
2018-11-25T21:41:27.327Z,5.87
2018-11-25T21:44:05.955Z,5.87
2018-11-25T21:46:41.275Z,5.88
2018-11-25T21:49:16.303Z,6.11
2018-11-25T21:51:51.300Z,6.15
2018-11-25T21:54:28.281Z,6.17
2018-11-25T21:57:03.284Z,6.27
2018-11-25T21:59:38.355Z,6.27
2018-11-25T22:02:13.342Z,6.39
2018-11-25T22:04:48.322Z,6.46
2018-11-25T22:07:23.317Z,6.46
2018-11-25T22:09:58.365Z,6.48
2018-11-25T22:12:31.296Z,6.49
2018-11-25T22:15:05.985Z,6.47
2018-11-25T22:17:41.285Z,6.53
2018-11-25T22:20:17.914Z,6.52
2018-11-25T22:22:53.303Z,6.56
2018-11-25T22:25:28.122Z,6.51
2018-11-25T22:28:03.526Z,6.56
2018-11-25T22:30:38.324Z,6.60
2018-11-25T22:33:14.428Z,6.53
2018-11-25T22:35:49.274Z,6.44
2018-11-25T22:38:22.300Z,6.45
2018-11-25T22:40:57.303Z,6.39
2018-11-25T22:43:30.365Z,6.36
2018-11-25T22:46:05.314Z,6.39
2018-11-25T22:48:41.517Z,6.31
2018-11-25T22:51:16.285Z,6.29
2018-11-25T22:53:51.432Z,6.32
2018-11-25T22:56:26.463Z,6.24
2018-11-25T22:59:01.487Z,6.30
2018-11-25T23:01:36.326Z,6.30
2018-11-25T23:05:02.967Z,6.26
2018-11-25T23:07:38.284Z,6.30
2018-11-25T23:10:11.312Z,6.32
2018-11-25T23:12:44.277Z,6.23
2018-11-25T23:15:19.726Z,6.20
2018-11-25T23:17:55.603Z,6.25
2018-11-25T23:20:30.623Z,6.23
2018-11-25T23:23:06.709Z,6.23
2018-11-25T23:25:41.963Z,6.24
2018-11-25T23:28:17.419Z,6.28
2018-11-25T23:30:52.301Z,6.40
2018-11-25T23:33:25.852Z,6.40
2018-11-25T23:36:01.344Z,6.39
2018-11-25T23:38:37.377Z,6.41
2018-11-25T23:41:12.322Z,6.38
2018-11-25T23:43:47.532Z,6.41
2018-11-25T23:46:22.290Z,6.40
2018-11-25T23:48:57.381Z,6.39
2018-11-25T23:51:32.324Z,6.36
2018-11-25T23:54:07.795Z,6.43
2018-11-25T23:56:42.618Z,6.43
2018-11-25T23:59:20.139Z,6.40
